Time;durP1;ratioP1;P1;durP2;ratioP2;P2;SDS_P1;SDS_P2;PMS_P1;PMS_P2;Temp;Humidity;BMP_temperature;BMP_pressure;BME280_temperature;BME280_humidity;BME280_pressure;Samples;Min_cycle;Max_cycle;Signal;HPM_P1;HPM_P2
2023/07/10 00:01:03;;;;;;;;;;;;;;;16.89;100.00;102168.03;5031386;28;20007;-73
2023/07/10 00:03:29;;;;;;;;;;;;;;;16.93;100.00;102176.66;5031657;28;20391;-73
2023/07/10 00:05:57;;;;;;;;;;;;;;;16.95;100.00;102176.53;5031609;28;20028;-73
2023/07/10 00:08:22;;;;;;;;;;;;;;;16.97;100.00;102187.97;5013760;28;20012;-73
2023/07/10 00:10:48;;;;;;;;;;;;;;;17.01;100.00;102181.28;5031324;28;20042;-73
2023/07/10 00:13:13;;;;;;;;;;;;;;;17.04;100.00;102179.16;5013856;28;19909;-73
2023/07/10 00:15:39;;;;;;;;;;;;;;;17.06;100.00;102177.16;5031286;28;20337;-73
2023/07/10 00:18:10;;;;;;;;;;;;;;;17.09;100.00;102187.63;5031519;28;19909;-73
2023/07/10 00:20:35;;;;;;;;;;;;;;;17.11;100.00;102190.16;5013486;28;19974;-74
2023/07/10 00:23:01;;;;;;;;;;;;;;;17.10;100.00;102188.47;5031135;28;19908;-73
2023/07/10 00:25:26;;;;;;;;;;;;;;;17.08;100.00;102182.41;5031431;28;19915;-73
2023/07/10 00:27:52;;;;;;;;;;;;;;;17.06;100.00;102173.63;5031443;28;19979;-73
2023/07/10 00:30:19;;;;;;;;;;;;;;;17.03;100.00;102177.47;5030352;28;20015;-73
2023/07/10 00:32:45;;;;;;;;;;;;;;;16.99;100.00;102181.44;5031262;28;19909;-73
2023/07/10 00:35:16;;;;;;;;;;;;;;;16.96;100.00;102178.19;5031216;28;19978;-73
2023/07/10 00:37:41;;;;;;;;;;;;;;;16.95;100.00;102176.53;5031479;28;19913;-73
2023/07/10 00:40:16;;;;;;;;;;;;;;;16.96;100.00;102170.13;5013147;28;20399;-73
2023/07/10 00:42:42;;;;;;;;;;;;;;;16.97;100.00;102174.50;5031110;28;19908;-73
2023/07/10 00:45:09;;;;;;;;;;;;;;;16.99;100.00;102177.88;5013110;28;19919;-73
2023/07/10 00:47:37;;;;;;;;;;;;;;;17.03;100.00;102181.97;5013665;28;19919;-73
2023/07/10 00:50:37;;;;;;;;;;;;;;;17.04;100.00;102189.91;5030836;28;19909;-73
2023/07/10 00:53:09;;;;;;;;;;;;;;;17.06;100.00;102193.31;4950481;29;20318;-73
2023/07/10 00:55:36;;;;;;;;;;;;;;;17.09;100.00;102184.06;5017368;28;20337;-73
2023/07/10 00:58:11;;;;;;;;;;;;;;;17.12;100.00;102182.94;5030548;28;20049;-73
2023/07/10 01:00:36;;;;;;;;;;;;;;;17.14;100.00;102179.09;5030994;28;19985;-73
2023/07/10 01:03:01;;;;;;;;;;;;;;;17.15;100.00;102171.88;5013175;28;19913;-73
2023/07/10 01:05:28;;;;;;;;;;;;;;;17.13;100.00;102176.56;5031285;28;19924;-73
2023/07/10 01:07:57;;;;;;;;;;;;;;;17.10;100.00;102175.84;5030998;28;20329;-73
2023/07/10 01:10:22;;;;;;;;;;;;;;;17.07;100.00;102176.16;5030534;28;19935;-73
2023/07/10 01:12:47;;;;;;;;;;;;;;;17.05;100.00;102175.47;5030374;28;19920;-74
2023/07/10 01:15:13;;;;;;;;;;;;;;;17.06;100.00;102173.63;5012450;28;19967;-73
2023/07/10 01:17:39;;;;;;;;;;;;;;;17.03;100.00;102171.22;5030805;28;20015;-73
2023/07/10 01:20:23;;;;;;;;;;;;;;;16.95;100.00;102165.75;5030530;28;20292;-74
2023/07/10 01:22:48;;;;;;;;;;;;;;;16.85;100.00;102171.97;5031056;28;19909;-73
2023/07/10 01:25:13;;;;;;;;;;;;;;;16.75;100.00;102168.50;5030593;28;19985;-73
2023/07/10 01:27:38;;;;;;;;;;;;;;;16.65;100.00;102160.47;5031084;28;19995;-73
2023/07/10 01:30:06;;;;;;;;;;;;;;;16.57;100.00;102165.75;5030558;28;19913;-73
2023/07/10 01:32:32;;;;;;;;;;;;;;;16.49;100.00;102177.19;5030723;28;19915;-73
2023/07/10 01:34:59;;;;;;;;;;;;;;;16.43;100.00;102167.03;5030272;28;20075;-73
2023/07/10 01:37:25;;;;;;;;;;;;;;;16.36;100.00;102171.28;5030366;28;19909;-73
2023/07/10 01:39:52;;;;;;;;;;;;;;;16.32;100.00;102165.38;5030391;28;20012;-73
2023/07/10 01:42:17;;;;;;;;;;;;;;;16.28;100.00;102166.66;5032583;28;19967;-73
2023/07/10 01:44:44;;;;;;;;;;;;;;;16.22;100.00;102164.53;5034193;28;20388;-74
2023/07/10 01:47:10;;;;;;;;;;;;;;;16.14;100.00;102162.59;5016354;28;19960;-74
2023/07/10 01:49:42;;;;;;;;;;;;;;;16.06;100.00;102167.81;5034591;28;19920;-74
2023/07/10 01:52:09;;;;;;;;;;;;;;;16.00;100.00;102161.19;5016151;28;20224;-73
2023/07/10 01:54:34;;;;;;;;;;;;;;;15.98;100.00;102171.22;5034232;28;19908;-73
2023/07/10 01:56:59;;;;;;;;;;;;;;;15.93;100.00;102167.25;5034569;28;19920;-73
2023/07/10 01:59:25;;;;;;;;;;;;;;;15.88;100.00;102161.47;5034249;28;19975;-73
2023/07/10 02:01:53;;;;;;;;;;;;;;;15.81;100.00;102156.69;5033361;28;19963;-74
2023/07/10 02:04:18;;;;;;;;;;;;;;;15.75;100.00;102157.22;5034124;28;19909;-73
2023/07/10 02:06:43;;;;;;;;;;;;;;;15.73;100.00;102155.66;5033918;28;19920;-73
2023/07/10 02:09:08;;;;;;;;;;;;;;;15.71;100.00;102158.47;5033816;28;19928;-74
2023/07/10 02:11:34;;;;;;;;;;;;;;;15.66;100.00;102163.44;5033597;28;19913;-74
2023/07/10 02:14:01;;;;;;;;;;;;;;;15.62;100.00;102157.47;5033932;28;19967;-73
2023/07/10 02:16:26;;;;;;;;;;;;;;;15.58;100.00;102155.22;5015683;28;19909;-73
2023/07/10 02:18:52;;;;;;;;;;;;;;;15.53;100.00;102155.66;5033641;28;19909;-73
2023/07/10 02:21:17;;;;;;;;;;;;;;;15.48;100.00;102164.09;5034127;28;20056;-73
2023/07/10 02:23:47;;;;;;;;;;;;;;;15.44;100.00;102151.97;5033949;28;19916;-73
2023/07/10 02:26:13;;;;;;;;;;;;;;;15.42;100.00;102148.59;5033845;28;19996;-73
2023/07/10 02:28:38;;;;;;;;;;;;;;;15.41;100.00;102146.03;5034382;28;20043;-73
2023/07/10 02:31:04;;;;;;;;;;;;;;;15.41;100.00;102146.03;5033562;28;19908;-73
2023/07/10 02:33:29;;;;;;;;;;;;;;;15.41;100.00;102138.81;5033444;28;19913;-73
2023/07/10 02:35:55;;;;;;;;;;;;;;;15.41;100.00;102141.50;5033044;28;19913;-74
2023/07/10 02:38:20;;;;;;;;;;;;;;;15.46;100.00;102147.28;5032899;28;19936;-74
2023/07/10 02:40:45;;;;;;;;;;;;;;;15.45;100.00;102147.44;5032847;28;19913;-73
2023/07/10 02:43:10;;;;;;;;;;;;;;;15.45;100.00;102140.25;5033274;28;19957;-74
2023/07/10 02:45:36;;;;;;;;;;;;;;;15.43;100.00;102141.38;5033448;28;19923;-74
2023/07/10 02:48:02;;;;;;;;;;;;;;;15.44;100.00;102141.22;5033002;28;19955;-73
2023/07/10 02:50:27;;;;;;;;;;;;;;;15.47;100.00;102145.47;5033320;28;20326;-73
2023/07/10 02:52:53;;;;;;;;;;;;;;;15.50;100.00;102140.66;5014555;28;19963;-73
2023/07/10 02:55:18;;;;;;;;;;;;;;;15.52;100.00;102140.53;5032569;28;19909;-73
2023/07/10 02:57:43;;;;;;;;;;;;;;;15.49;100.00;102141.66;5033000;28;20018;-74
2023/07/10 03:00:08;;;;;;;;;;;;;;;15.45;100.00;102145.63;5033578;28;19913;-73
2023/07/10 03:02:34;;;;;;;;;;;;;;;15.42;100.00;102151.25;5032768;28;20265;-73
2023/07/10 03:04:59;;;;;;;;;;;;;;;15.39;100.00;102156.91;5015158;28;19924;-74
2023/07/10 03:07:24;;;;;;;;;;;;;;;15.39;100.00;102156.03;5033172;28;19917;-73
2023/07/10 03:09:49;;;;;;;;;;;;;;;15.38;100.00;102149.00;4998680;28;19919;-72
2023/07/10 03:12:15;;;;;;;;;;;;;;;15.34;100.00;102146.56;5014904;28;19932;-73
2023/07/10 03:14:41;;;;;;;;;;;;;;;15.36;100.00;102149.13;5032969;28;19916;-73
2023/07/10 03:17:06;;;;;;;;;;;;;;;15.35;100.00;102150.13;5032733;28;20348;-73
2023/07/10 03:19:31;;;;;;;;;;;;;;;15.33;100.00;102149.38;4998784;28;20003;-72
2023/07/10 03:21:57;;;;;;;;;;;;;;;15.30;100.00;102147.84;5032699;28;20264;-76
2023/07/10 03:24:22;;;;;;;;;;;;;;;15.31;100.00;102162.94;5032175;28;19920;-72
2023/07/10 03:26:47;;;;;;;;;;;;;;;15.31;100.00;102162.94;5032679;28;20303;-72
2023/07/10 03:29:14;;;;;;;;;;;;;;;15.33;100.00;102166.34;5032374;28;19927;-72
2023/07/10 03:31:39;;;;;;;;;;;;;;;15.31;100.00;102164.78;5032539;28;19909;-72
2023/07/10 03:34:04;;;;;;;;;;;;;;;15.30;100.00;102166.63;5014537;28;20011;-73
2023/07/10 03:36:30;;;;;;;;;;;;;;;15.33;100.00;102168.16;5032597;28;20305;-73
2023/07/10 03:38:55;;;;;;;;;;;;;;;15.33;100.00;102169.03;5032410;28;20012;-73
2023/07/10 03:41:21;;;;;;;;;;;;;;;15.32;100.00;102166.47;5032057;28;19960;-72
2023/07/10 03:43:48;;;;;;;;;;;;;;;15.32;100.00;102167.31;5032420;28;19920;-72
2023/07/10 03:46:14;;;;;;;;;;;;;;;15.30;100.00;102160.38;5032086;28;19956;-73
2023/07/10 03:48:39;;;;;;;;;;;;;;;15.26;100.00;102164.34;5032037;28;19948;-73
2023/07/10 03:51:04;;;;;;;;;;;;;;;15.23;100.00;102162.78;5031883;28;19912;-73
2023/07/10 03:53:29;;;;;;;;;;;;;;;15.21;100.00;102174.63;5032048;28;19913;-73
2023/07/10 03:55:55;;;;;;;;;;;;;;;15.20;100.00;102181.84;5032033;28;19917;-72
2023/07/10 03:58:22;;;;;;;;;;;;;;;15.21;100.00;102185.34;5031618;28;19920;-73
2023/07/10 04:00:47;;;;;;;;;;;;;;;15.21;100.00;102178.19;5031576;28;20278;-73
2023/07/10 04:03:13;;;;;;;;;;;;;;;15.21;100.00;102191.59;5032150;28;19968;-73
2023/07/10 04:05:38;;;;;;;;;;;;;;;15.21;100.00;102194.25;5031661;28;19920;-73
2023/07/10 04:08:03;;;;;;;;;;;;;;;15.21;100.00;102196.06;5031642;28;20325;-73
2023/07/10 04:10:29;;;;;;;;;;;;;;;15.23;100.00;102196.81;5032224;28;20363;-73
2023/07/10 04:12:54;;;;;;;;;;;;;;;15.23;100.00;102203.00;5031749;28;19920;-72
2023/07/10 04:15:19;;;;;;;;;;;;;;;15.25;100.00;102205.56;5031717;28;19913;-72
2023/07/10 04:17:44;;;;;;;;;;;;;;;15.26;100.00;102209.94;5031530;28;20367;-73
2023/07/10 04:20:10;;;;;;;;;;;;;;;15.28;100.00;102216.00;5031576;28;20324;-73
2023/07/10 04:22:35;;;;;;;;;;;;;;;15.29;100.00;102217.72;5031248;28;19995;-72
2023/07/10 04:25:05;;;;;;;;;;;;;;;15.27;100.00;102216.97;5031267;28;20326;-73
2023/07/10 04:27:31;;;;;;;;;;;;;;;15.31;100.00;102218.41;5031421;28;19913;-73
2023/07/10 04:29:56;;;;;;;;;;;;;;;15.36;100.00;102220.66;5031544;28;19963;-72
2023/07/10 04:32:22;;;;;;;;;;;;;;;15.38;100.00;102216.88;5013354;28;19943;-73
2023/07/10 04:34:47;;;;;;;;;;;;;;;15.43;100.00;102213.78;5031214;28;19909;-73
2023/07/10 04:37:12;;;;;;;;;;;;;;;15.45;100.00;102212.66;5031522;28;19935;-73
2023/07/10 04:39:37;;;;;;;;;;;;;;;15.48;100.00;102209.72;5013296;28;19923;-72
2023/07/10 04:42:03;;;;;;;;;;;;;;;15.51;100.00;102212.09;5031426;28;19916;-72
2023/07/10 04:44:28;;;;;;;;;;;;;;;15.54;100.00;102213.69;5013839;28;19933;-73
2023/07/10 04:46:53;;;;;;;;;;;;;;;15.57;100.00;102207.16;5031339;28;19984;-73
2023/07/10 04:49:20;;;;;;;;;;;;;;;15.61;100.00;102204.06;5031845;28;19916;-73
2023/07/10 04:51:45;;;;;;;;;;;;;;;15.65;100.00;102196.59;5031012;28;19913;-73
2023/07/10 04:54:10;;;;;;;;;;;;;;;15.68;100.00;102209.72;5031129;28;19916;-73
2023/07/10 04:56:35;;;;;;;;;;;;;;;15.73;100.00;102215.50;5031501;28;20012;-72
2023/07/10 04:59:01;;;;;;;;;;;;;;;15.76;100.00;102217.91;5009464;28;19920;-72
2023/07/10 05:01:27;;;;;;;;;;;;;;;15.79;100.00;102208.78;5011456;28;19967;-74
2023/07/10 05:03:53;;;;;;;;;;;;;;;15.83;100.00;102202.16;5011764;28;19999;-74
2023/07/10 05:06:18;;;;;;;;;;;;;;;15.89;100.00;102211.47;5010921;28;19972;-75
2023/07/10 05:08:44;;;;;;;;;;;;;;;15.95;100.00;102210.91;5011932;28;19914;-72
2023/07/10 05:11:09;;;;;;;;;;;;;;;16.00;100.00;102217.56;5010894;28;20059;-78
2023/07/10 05:13:35;;;;;;;;;;;;;;;16.04;100.00;102204.69;5011035;28;19999;-73
2023/07/10 05:16:00;;;;;;;;;;;;;;;16.09;100.00;102212.31;5010810;28;20083;-72
2023/07/10 05:18:26;;;;;;;;;;;;;;;16.11;100.00;102216.56;5012282;28;19920;-71
2023/07/10 05:20:52;;;;;;;;;;;;;;;16.19;100.00;102218.53;5011426;28;20337;-72
2023/07/10 05:23:17;;;;;;;;;;;;;;;16.27;100.00;102218.69;5009714;28;19980;-72
2023/07/10 05:25:55;;;;;;;;;;;;;;;16.34;100.00;102214.41;5011226;28;20047;-72
2023/07/10 05:28:20;;;;;;;;;;;;;;;16.38;100.00;102212.31;5011157;28;19910;-73
2023/07/10 05:30:45;;;;;;;;;;;;;;;16.41;100.00;102198.56;5011204;28;20028;-72
2023/07/10 05:33:11;;;;;;;;;;;;;;;16.44;100.00;102200.13;5011190;28;19923;-72
2023/07/10 05:35:36;;;;;;;;;;;;;;;16.46;100.00;102209.72;5011219;28;20003;-72
2023/07/10 05:38:01;;;;;;;;;;;;;;;16.50;100.00;102213.81;5011402;28;19921;-72
2023/07/10 05:40:26;;;;;;;;;;;;;;;16.56;100.00;102223.97;5011541;28;19989;-72
2023/07/10 05:42:52;;;;;;;;;;;;;;;16.60;100.00;102216.50;5011077;28;20445;-72
2023/07/10 05:45:17;;;;;;;;;;;;;;;16.64;100.00;102215.19;5010705;28;19913;-72
2023/07/10 05:47:42;;;;;;;;;;;;;;;16.71;100.00;102216.31;5011182;28;20340;-72
2023/07/10 05:50:08;;;;;;;;;;;;;;;16.80;100.00;102211.91;5010893;28;19914;-72
2023/07/10 05:52:33;;;;;;;;;;;;;;;16.87;100.00;102221.09;5012368;28;19920;-73
2023/07/10 05:54:58;;;;;;;;;;;;;;;17.01;100.00;102232.38;5009718;28;20019;-72
2023/07/10 05:57:23;;;;;;;;;;;;;;;17.15;100.00;102236.41;5009408;28;19933;-72
2023/07/10 05:59:49;;;;;;;;;;;;;;;17.24;100.00;102241.75;5027246;28;20368;-72
2023/07/10 06:02:14;;;;;;;;;;;;;;;17.36;100.00;102238.84;5030650;28;19913;-73
2023/07/10 06:04:39;;;;;;;;;;;;;;;17.50;100.00;102237.53;5030385;28;19913;-72
2023/07/10 06:07:05;;;;;;;;;;;;;;;17.63;100.00;102233.47;5030886;28;20380;-72
2023/07/10 06:09:30;;;;;;;;;;;;;;;17.78;100.00;102238.34;5030200;28;19959;-73
2023/07/10 06:11:55;;;;;;;;;;;;;;;17.94;100.00;102243.03;5030428;28;20344;-73
2023/07/10 06:14:21;;;;;;;;;;;;;;;18.09;100.00;102235.28;5012607;28;19918;-74
2023/07/10 06:16:46;;;;;;;;;;;;;;;18.23;100.00;102241.97;5012799;28;20395;-74
2023/07/10 06:19:11;;;;;;;;;;;;;;;18.37;100.00;102244.09;5030602;28;19913;-74
2023/07/10 06:21:36;;;;;;;;;;;;;;;18.54;100.00;102245.06;5030458;28;19981;-73
2023/07/10 06:24:02;;;;;;;;;;;;;;;18.64;100.00;102245.78;5030245;28;19917;-73
2023/07/10 06:26:27;;;;;;;;;;;;;;;18.80;100.00;102245.06;5030039;28;19913;-73
2023/07/10 06:28:52;;;;;;;;;;;;;;;18.92;100.00;102245.66;5012957;28;19913;-73
2023/07/10 06:31:18;;;;;;;;;;;;;;;19.05;100.00;102244.38;5034037;28;20315;-75
2023/07/10 06:33:43;;;;;;;;;;;;;;;19.19;100.00;102258.09;5015384;28;19913;-75
2023/07/10 06:36:09;;;;;;;;;;;;;;;19.34;100.00;102254.78;5033804;28;19913;-75
2023/07/10 06:38:35;;;;;;;;;;;;;;;19.47;100.00;102252.47;5033207;28;19917;-75
2023/07/10 06:41:00;;;;;;;;;;;;;;;19.58;100.00;102253.19;5033246;28;20007;-74
2023/07/10 06:43:25;;;;;;;;;;;;;;;19.62;100.00;102251.88;5033288;28;19916;-74
2023/07/10 06:45:51;;;;;;;;;;;;;;;19.66;100.00;102261.31;5032866;28;20018;-74
2023/07/10 06:48:16;;;;;;;;;;;;;;;19.72;100.00;102260.63;5033203;28;20210;-74
2023/07/10 06:50:45;;;;;;;;;;;;;;;19.78;100.00;102269.97;5014603;28;19913;-76
2023/07/10 06:53:11;;;;;;;;;;;;;;;19.83;100.00;102273.03;5032870;28;19945;-75
2023/07/10 06:55:36;;;;;;;;;;;;;;;19.90;100.00;102269.50;5032634;28;19975;-75
2023/07/10 06:58:01;;;;;;;;;;;;;;;19.93;100.00;102268.34;5032768;28;19952;-74
2023/07/10 07:00:26;;;;;;;;;;;;;;;20.07;100.00;102274.94;5014921;28;19913;-75
2023/07/10 07:02:52;;;;;;;;;;;;;;;20.19;100.00;102265.47;5014943;28;19991;-75
2023/07/10 07:05:17;;;;;;;;;;;;;;;20.35;100.00;102269.22;5032811;28;20340;-75
2023/07/10 07:07:43;;;;;;;;;;;;;;;20.41;100.00;102277.47;5032994;28;19953;-75
2023/07/10 07:10:13;;;;;;;;;;;;;;;20.38;100.00;102277.81;5032736;28;20325;-74
2023/07/10 07:12:42;;;;;;;;;;;;;;;20.15;100.00;102288.44;5032730;28;20063;-73
2023/07/10 07:15:08;;;;;;;;;;;;;;;20.06;100.00;102278.63;5032145;28;19982;-73
2023/07/10 07:17:33;;;;;;;;;;;;;;;20.11;100.00;102283.53;5032250;28;19959;-72
2023/07/10 07:19:58;;;;;;;;;;;;;;;20.16;100.00;102286.59;5032629;28;20008;-71
2023/07/10 07:22:24;;;;;;;;;;;;;;;20.28;100.00;102290.66;5032202;28;19913;-70
2023/07/10 07:24:49;;;;;;;;;;;;;;;20.29;100.00;102280.66;5032877;28;19913;-70
2023/07/10 07:27:15;;;;;;;;;;;;;;;20.32;100.00;102283.03;5032538;28;19971;-70
2023/07/10 07:29:41;;;;;;;;;;;;;;;20.34;100.00;102273.75;5032578;28;19967;-72
2023/07/10 07:32:06;;;;;;;;;;;;;;;20.40;100.00;102275.75;5032595;28;20016;-71
2023/07/10 07:34:31;;;;;;;;;;;;;;;20.54;100.00;102274.25;5032317;28;19920;-71
2023/07/10 07:36:57;;;;;;;;;;;;;;;20.66;100.00;102282.03;5032687;28;20003;-70
2023/07/10 07:39:27;;;;;;;;;;;;;;;20.64;100.00;102271.34;5032041;28;20020;-71
2023/07/10 07:41:53;;;;;;;;;;;;;;;20.64;100.00;102279.47;5032514;28;19913;-72
2023/07/10 07:44:18;;;;;;;;;;;;;;;20.64;100.00;102279.47;5032394;28;20299;-71
2023/07/10 07:46:43;;;;;;;;;;;;;;;20.64;100.00;102284.03;5031961;28;19917;-73
2023/07/10 07:49:08;;;;;;;;;;;;;;;20.67;100.00;102281.88;5032438;28;19916;-71
2023/07/10 07:51:36;;;;;;;;;;;;;;;20.73;100.00;102280.34;5031999;28;19909;-72
2023/07/10 07:54:04;;;;;;;;;;;;;;;20.75;100.00;102287.28;5032475;28;19913;-72
2023/07/10 07:56:29;;;;;;;;;;;;;;;20.67;100.00;102284.56;5014401;28;19944;-75
2023/07/10 07:58:54;;;;;;;;;;;;;;;20.61;100.00;102291.47;5014340;28;19948;-72
2023/07/10 08:01:19;;;;;;;;;;;;;;;20.72;100.00;102290.31;5014654;28;20352;-73
2023/07/10 08:03:45;;;;;;;;;;;;;;;20.80;100.00;102288.63;5032309;28;19939;-75
2023/07/10 08:06:10;;;;;;;;;;;;;;;20.87;100.00;102284.19;5032337;28;20232;-77
2023/07/10 08:08:35;;;;;;;;;;;;;;;20.98;100.00;102280.31;5014211;28;19979;-73
2023/07/10 08:11:00;;;;;;;;;;;;;;;21.11;100.00;102281.44;5032285;28;19913;-73
2023/07/10 08:13:25;;;;;;;;;;;;;;;21.24;100.00;102274.63;5014564;28;20024;-76
2023/07/10 08:15:51;;;;;;;;;;;;;;;21.42;100.00;102277.94;5032235;28;20004;-73
2023/07/10 08:18:16;;;;;;;;;;;;;;;21.65;100.00;102275.31;5032165;28;19913;-74
2023/07/10 08:20:41;;;;;;;;;;;;;;;21.82;100.00;102272.50;5031673;28;19935;-71
2023/07/10 08:23:06;;;;;;;;;;;;;;;21.93;100.00;102269.38;5031909;28;20349;-72
2023/07/10 08:25:32;;;;;;;;;;;;;;;21.99;100.00;102274.06;5031556;28;20368;-73
2023/07/10 08:27:58;;;;;;;;;;;;;;;22.07;100.00;102266.91;5031994;28;19976;-73
2023/07/10 08:30:24;;;;;;;;;;;;;;;22.26;100.00;102273.69;5031429;28;19913;-73
2023/07/10 08:32:49;;;;;;;;;;;;;;;22.42;100.00;102276.28;5032685;28;19990;-72
2023/07/10 08:35:14;;;;;;;;;;;;;;;22.55;100.00;102272.97;5031700;28;19913;-74
2023/07/10 08:37:40;;;;;;;;;;;;;;;22.65;100.00;102273.56;5031468;28;19935;-73
2023/07/10 08:40:06;;;;;;;;;;;;;;;22.75;100.00;102275.16;5031841;28;20394;-74
2023/07/10 08:42:32;;;;;;;;;;;;;;;22.91;100.00;102277.69;5031491;28;19913;-75
2023/07/10 08:44:58;;;;;;;;;;;;;;;23.09;100.00;102282.75;5031607;28;20339;-75
2023/07/10 08:47:26;;;;;;;;;;;;;;;23.24;100.00;102280.91;5031612;28;19913;-74
2023/07/10 08:49:54;;;;;;;;;;;;;;;23.21;96.53;102277.72;5031673;28;19924;-77
2023/07/10 08:52:36;;;;;;;;;;;;;;;23.05;100.00;102281.44;5030771;28;19967;-73
2023/07/10 08:55:01;;;;;;;;;;;;;;;23.21;100.00;102283.13;5031439;28;19909;-74
2023/07/10 08:57:31;;;;;;;;;;;;;;;23.37;100.00;102293.78;5031426;28;19932;-74
2023/07/10 09:00:06;;;;;;;;;;;;;;;23.37;99.35;102291.09;5031095;28;20004;-73
2023/07/10 09:02:38;;;;;;;;;;;;;;;23.44;93.04;102293.91;5031055;28;19942;-74
2023/07/10 09:05:11;;;;;;;;;;;;;;;23.49;97.03;102293.31;5031042;28;19985;-76
2023/07/10 09:07:42;;;;;;;;;;;;;;;23.73;95.25;102294.84;5030818;28;20049;-73
2023/07/10 09:10:11;;;;;;;;;;;;;;;24.02;92.37;102295.81;5031126;28;20051;-74
2023/07/10 09:12:39;;;;;;;;;;;;;;;24.27;88.16;102291.69;5030896;28;20039;-74
2023/07/10 09:15:11;;;;;;;;;;;;;;;24.59;92.05;102300.34;5031019;28;20321;-73
2023/07/10 09:17:54;;;;;;;;;;;;;;;25.12;88.42;102293.56;5031102;28;19998;-73
2023/07/10 09:20:20;;;;;;;;;;;;;;;25.45;79.14;102290.19;5030995;28;19909;-73
2023/07/10 09:22:48;;;;;;;;;;;;;;;25.50;74.25;102283.09;5012902;28;19947;-78
2023/07/10 09:25:14;;;;;;;;;;;;;;;25.60;75.28;102290.03;5030948;28;19978;-73
2023/07/10 09:27:44;;;;;;;;;;;;;;;25.87;72.80;102280.03;5012780;28;20373;-72
2023/07/10 09:30:15;;;;;;;;;;;;;;;26.16;73.31;102278.03;5031055;28;19921;-74
2023/07/10 09:32:40;;;;;;;;;;;;;;;26.45;73.54;102282.22;5030639;28;20290;-72
2023/07/10 09:35:06;;;;;;;;;;;;;;;26.53;60.74;102283.91;5030390;28;19930;-71
2023/07/10 09:37:34;;;;;;;;;;;;;;;26.24;56.92;102285.16;5012967;28;20369;-74
2023/07/10 09:40:18;;;;;;;;;;;;;;;26.79;57.49;102296.72;5030604;28;20225;-74
2023/07/10 09:42:43;;;;;;;;;;;;;;;26.83;57.94;102299.88;5030392;28;19909;-75
2023/07/10 09:45:09;;;;;;;;;;;;;;;27.00;54.08;102294.78;5012564;28;20238;-72
2023/07/10 09:47:43;;;;;;;;;;;;;;;27.11;57.18;102302.31;5030421;28;19913;-75
2023/07/10 09:50:12;;;;;;;;;;;;;;;27.39;52.09;102307.47;5030470;28;19908;-73
2023/07/10 09:52:39;;;;;;;;;;;;;;;27.34;54.44;102301.00;5030549;28;19909;-72
2023/07/10 09:55:07;;;;;;;;;;;;;;;27.40;52.34;102289.22;5030419;28;20334;-75
2023/07/10 09:57:32;;;;;;;;;;;;;;;27.86;55.30;102281.81;5030189;28;20007;-72
2023/07/10 09:59:59;;;;;;;;;;;;;;;28.17;52.89;102283.75;5030763;28;20007;-72
2023/07/10 10:02:33;;;;;;;;;;;;;;;28.02;50.58;102291.41;5012824;28;19943;-72
2023/07/10 10:05:10;;;;;;;;;;;;;;;28.00;50.84;102296.28;5033958;28;19979;-72
2023/07/10 10:07:38;;;;;;;;;;;;;;;27.87;50.27;102295.28;5034059;28;19913;-74
2023/07/10 10:10:15;;;;;;;;;;;;;;;27.82;49.92;102286.06;5033959;28;19978;-72
2023/07/10 10:12:40;;;;;;;;;;;;;;;27.73;49.15;102291.75;5016451;28;19956;-74
2023/07/10 10:15:11;;;;;;;;;;;;;;;27.97;51.88;102294.81;5033749;28;20075;-73
2023/07/10 10:17:40;;;;;;;;;;;;;;;27.64;48.83;102292.25;5034119;28;20007;-73
2023/07/10 10:20:08;;;;;;;;;;;;;;;27.84;48.65;102292.13;5033631;28;20107;-73
2023/07/10 10:22:34;;;;;;;;;;;;;;;27.94;48.46;102287.84;5033384;28;19966;-74
2023/07/10 10:24:59;;;;;;;;;;;;;;;28.02;49.41;102296.88;5033696;28;19921;-73
2023/07/10 10:27:39;;;;;;;;;;;;;;;27.92;47.27;102283.69;5033555;28;19963;-73
2023/07/10 10:30:10;;;;;;;;;;;;;;;27.70;48.82;102288.66;5033762;28;19909;-72
2023/07/10 10:32:38;;;;;;;;;;;;;;;27.68;49.13;102299.78;5033669;28;19909;-73
2023/07/10 10:35:03;;;;;;;;;;;;;;;27.69;49.76;102292.44;5033424;28;19916;-73
2023/07/10 10:37:43;;;;;;;;;;;;;;;27.85;49.01;102302.00;5033263;28;19909;-74
2023/07/10 10:40:08;;;;;;;;;;;;;;;28.23;49.59;102299.25;5015096;28;19909;-72
2023/07/10 10:42:34;;;;;;;;;;;;;;;28.41;50.74;102303.94;5032848;28;19916;-73
2023/07/10 10:45:15;;;;;;;;;;;;;;;28.39;49.69;102306.06;5033181;28;20005;-73
2023/07/10 10:47:45;;;;;;;;;;;;;;;28.40;46.42;102295.97;5033266;28;19909;-74
2023/07/10 10:50:22;;;;;;;;;;;;;;;28.43;46.44;102299.09;5033249;28;20008;-73
2023/07/10 10:52:56;;;;;;;;;;;;;;;28.49;46.31;102302.81;5033147;28;20047;-73
2023/07/10 10:55:30;;;;;;;;;;;;;;;28.45;46.33;102299.69;5033101;28;20336;-73
2023/07/10 10:58:15;;;;;;;;;;;;;;;28.77;46.42;102299.66;5032812;28;19920;-73
2023/07/10 11:00:53;;;;;;;;;;;;;;;28.83;46.07;102293.25;5032495;28;19913;-72
2023/07/10 11:03:18;;;;;;;;;;;;;;;28.89;46.52;102291.53;5033126;28;20014;-73
2023/07/10 11:05:45;;;;;;;;;;;;;;;28.80;45.23;102304.66;5033182;28;19916;-73
2023/07/10 11:08:18;;;;;;;;;;;;;;;28.81;44.54;102289.06;5032657;28;20398;-73
2023/07/10 11:10:45;;;;;;;;;;;;;;;29.06;47.78;102279.97;5032677;28;19917;-73
2023/07/10 11:13:25;;;;;;;;;;;;;;;29.60;44.41;102291.09;5032154;28;20265;-73
2023/07/10 11:15:51;;;;;;;;;;;;;;;29.38;43.41;102288.88;5031909;28;19959;-74
2023/07/10 11:18:16;;;;;;;;;;;;;;;27.93;46.28;102282.59;5032336;28;19921;-73
2023/07/10 11:20:42;;;;;;;;;;;;;;;27.05;47.67;102297.69;5032488;28;20358;-73
2023/07/10 11:23:27;;;;;;;;;;;;;;;27.54;49.28;102289.97;5032530;28;20003;-73
2023/07/10 11:26:18;;;;;;;;;;;;;;;28.36;50.88;102289.25;5032915;28;19967;-73
2023/07/10 11:29:02;;;;;;;;;;;;;;;29.19;44.26;102277.88;5028319;28;19913;-73
2023/07/10 11:31:35;;;;;;;;;;;;;;;29.60;47.52;102275.47;5032755;28;20004;-73
2023/07/10 11:34:06;;;;;;;;;;;;;;;29.88;41.07;102285.88;5033046;28;19924;-73
2023/07/10 11:36:44;;;;;;;;;;;;;;;29.97;41.47;102280.06;5032589;28;19928;-72
2023/07/10 11:39:16;;;;;;;;;;;;;;;30.01;41.23;102273.03;5032200;28;19913;-73
2023/07/10 11:41:41;;;;;;;;;;;;;;;29.94;40.36;102273.13;5032647;28;19953;-72
2023/07/10 11:44:15;;;;;;;;;;;;;;;30.48;38.73;102273.09;5014483;28;19920;-73
2023/07/10 11:47:01;;;;;;;;;;;;;;;30.00;38.65;102266.69;5032463;28;19913;-73
2023/07/10 11:49:35;;;;;;;;;;;;;;;30.03;39.13;102268.13;5032163;28;19995;-73
2023/07/10 11:52:11;;;;;;;;;;;;;;;30.53;41.54;102258.66;5032001;28;19939;-74
2023/07/10 11:54:37;;;;;;;;;;;;;;;30.45;37.16;102259.84;5031977;28;20016;-73
2023/07/10 11:57:08;;;;;;;;;;;;;;;30.33;38.97;102261.72;5014098;28;19990;-74
2023/07/10 11:59:34;;;;;;;;;;;;;;;30.37;37.83;102261.00;5031927;28;19916;-74
2023/07/10 12:01:59;;;;;;;;;;;;;;;29.87;38.17;102265.00;5031832;28;19917;-75
2023/07/10 12:04:26;;;;;;;;;;;;;;;30.32;38.33;102260.91;5031733;28;20357;-74
2023/07/10 12:06:51;;;;;;;;;;;;;;;30.54;39.57;102269.38;5031829;28;19933;-75
2023/07/10 12:09:16;;;;;;;;;;;;;;;30.35;36.08;102260.44;5031934;28;19928;-73
2023/07/10 12:11:42;;;;;;;;;;;;;;;30.76;36.86;102266.88;5031647;28;20250;-73
2023/07/10 12:14:11;;;;;;;;;;;;;;;30.87;38.08;102259.72;5031669;28;20003;-75
2023/07/10 12:16:57;;;;;;;;;;;;;;;31.34;37.08;102258.75;5031495;28;20374;-74
2023/07/10 12:19:25;;;;;;;;;;;;;;;31.39;36.02;102253.34;5031021;28;20004;-75
2023/07/10 12:21:50;;;;;;;;;;;;;;;31.28;35.64;102246.81;5031508;28;20310;-74
2023/07/10 12:24:16;;;;;;;;;;;;;;;31.28;35.08;102249.56;5030845;28;19943;-74
2023/07/10 12:26:42;;;;;;;;;;;;;;;30.87;35.23;102247.88;5031761;28;19920;-75
2023/07/10 12:29:11;;;;;;;;;;;;;;;31.10;36.30;102249.75;5031383;28;19913;-77
2023/07/10 12:31:37;;;;;;;;;;;;;;;31.18;37.38;102248.53;5031386;28;19921;-75